createdAt,value
2019-02-06T00:03:31.657Z,100681.95
2019-02-06T00:05:59.428Z,100686.62
2019-02-06T00:08:28.318Z,100692.59
2019-02-06T00:10:56.095Z,100690.78
2019-02-06T00:13:23.868Z,100682.72
2019-02-06T00:15:52.055Z,100688.36
2019-02-06T00:18:19.868Z,100695.62
2019-02-06T00:20:47.664Z,100692.14
2019-02-06T00:23:15.491Z,100683.91
2019-02-06T00:25:55.901Z,100689.41
2019-02-06T00:28:23.783Z,100691.89
2019-02-06T00:30:52.249Z,100688.22
2019-02-06T00:33:20.220Z,100691.53
2019-02-06T00:35:48.252Z,100691.42
2019-02-06T00:38:16.012Z,100687.13
2019-02-06T00:40:43.825Z,100689.59
2019-02-06T00:43:11.644Z,100690.73
2019-02-06T00:45:39.460Z,100688.90
2019-02-06T00:48:07.323Z,100689.14
2019-02-06T00:50:35.155Z,100691.56
2019-02-06T00:53:03.250Z,100688.66
2019-02-06T00:55:31.039Z,100682.45
2019-02-06T00:57:58.866Z,100687.48
2019-02-06T01:00:26.642Z,100687.84
2019-02-06T01:02:54.438Z,100689.41
2019-02-06T01:05:22.255Z,100688.44
2019-02-06T01:07:50.118Z,100681.84
2019-02-06T01:10:18.344Z,100672.55
2019-02-06T01:12:46.216Z,100669.32
2019-02-06T01:15:14.614Z,100666.75
2019-02-06T01:17:42.378Z,100665.45
2019-02-06T01:20:12.746Z,100671.01
2019-02-06T01:22:40.521Z,100673.53
2019-02-06T01:25:11.114Z,100675.66
2019-02-06T01:27:38.986Z,100681.11
2019-02-06T01:30:13.681Z,100685.27
2019-02-06T01:32:41.458Z,100696.77
2019-02-06T01:35:10.715Z,100697.48
2019-02-06T01:37:38.469Z,100702.88
2019-02-06T01:40:07.062Z,100701.22
2019-02-06T01:42:35.005Z,100698.80
2019-02-06T01:45:03.493Z,100700.58
2019-02-06T01:47:31.526Z,100694.55
2019-02-06T01:49:59.312Z,100692.27
2019-02-06T01:52:27.077Z,100690.80
2019-02-06T01:54:55.007Z,100685.21
2019-02-06T01:57:22.865Z,100692.72
2019-02-06T01:59:50.685Z,100698.72
2019-02-06T02:02:18.436Z,100694.42
2019-02-06T02:04:46.663Z,100696.76
2019-02-06T02:07:14.622Z,100694.11
2019-02-06T02:09:42.466Z,100693.64
2019-02-06T02:12:10.527Z,100693.88
2019-02-06T02:14:38.340Z,100695.56
2019-02-06T02:17:06.231Z,100697.98
2019-02-06T02:19:33.954Z,100691.39
2019-02-06T02:22:01.717Z,100683.76
2019-02-06T02:24:29.514Z,100688.46
2019-02-06T02:26:57.318Z,100683.84
2019-02-06T02:29:25.324Z,100677.55
2019-02-06T02:31:53.221Z,100674.47
2019-02-06T02:34:21.009Z,100680.41
2019-02-06T02:36:48.748Z,100675.72
2019-02-06T02:39:16.560Z,100673.10
2019-02-06T02:41:44.383Z,100671.67
2019-02-06T02:44:12.181Z,100669.64
2019-02-06T02:46:39.999Z,100667.45
2019-02-06T02:49:07.813Z,100663.90
2019-02-06T02:51:35.602Z,100661.84
2019-02-06T02:54:03.955Z,100643.78
2019-02-06T02:56:31.762Z,100653.85
2019-02-06T02:58:59.559Z,100652.08
2019-02-06T03:01:44.661Z,100647.78
2019-02-06T03:04:32.044Z,100645.75
2019-02-06T03:06:59.916Z,100646.94
2019-02-06T03:09:27.747Z,100646.69
2019-02-06T03:11:55.837Z,100651.44
2019-02-06T03:14:23.620Z,100628.34
2019-02-06T03:16:51.453Z,100651.16
2019-02-06T03:19:19.843Z,100648.42
2019-02-06T03:21:47.605Z,100638.75
2019-02-06T03:24:15.466Z,100634.92
2019-02-06T03:26:43.272Z,100631.17
2019-02-06T03:29:11.468Z,100632.89
2019-02-06T03:31:39.242Z,100632.30
2019-02-06T03:34:07.022Z,100632.52
2019-02-06T03:36:40.428Z,100633.48
2019-02-06T03:39:24.514Z,100634.47
2019-02-06T03:42:04.687Z,100628.83
2019-02-06T03:44:32.811Z,100633.34
2019-02-06T03:47:01.010Z,100635.67
2019-02-06T03:49:28.811Z,100634.26
2019-02-06T03:51:56.677Z,100642.80
2019-02-06T03:54:24.493Z,100636.94
2019-02-06T03:56:52.679Z,100632.53
2019-02-06T03:59:20.487Z,100634.45
2019-02-06T04:01:48.250Z,100636.41
2019-02-06T04:04:16.078Z,100630.00
2019-02-06T04:06:54.928Z,100632.42
2019-02-06T04:09:18.626Z,100629.09
2019-02-06T04:11:46.730Z,100631.56
2019-02-06T04:14:14.567Z,100632.53
2019-02-06T04:16:42.488Z,100634.30
2019-02-06T04:19:10.317Z,100640.66
2019-02-06T04:21:38.156Z,100638.93
2019-02-06T04:24:28.554Z,100639.20
2019-02-06T04:26:56.389Z,100639.02
2019-02-06T04:29:24.215Z,100639.41
2019-02-06T04:31:51.974Z,100636.75
2019-02-06T04:34:19.785Z,100636.05
2019-02-06T04:36:47.597Z,100642.88
2019-02-06T04:39:15.420Z,100642.38
2019-02-06T04:41:43.261Z,100645.44
2019-02-06T04:44:11.068Z,100643.70
2019-02-06T04:46:38.857Z,100643.12
2019-02-06T04:49:06.671Z,100645.41
2019-02-06T04:51:37.387Z,100645.39
2019-02-06T04:54:07.046Z,100607.45
2019-02-06T04:56:39.164Z,100647.31
2019-02-06T04:59:07.047Z,100645.57
2019-02-06T05:01:34.836Z,100630.23
2019-02-06T05:04:02.737Z,100634.48
2019-02-06T05:06:30.510Z,100639.27
2019-02-06T05:08:58.369Z,100640.74
2019-02-06T05:11:26.178Z,100637.27
2019-02-06T05:13:54.641Z,100633.59
2019-02-06T05:16:22.463Z,100635.69
2019-02-06T05:18:50.281Z,100639.67
2019-02-06T05:21:18.068Z,100631.66
2019-02-06T05:23:45.887Z,100628.23
2019-02-06T05:26:13.739Z,100626.42
2019-02-06T05:28:41.563Z,100635.11
2019-02-06T05:31:09.805Z,100640.59
2019-02-06T05:33:37.626Z,100637.78
2019-02-06T05:36:05.620Z,100637.48
2019-02-06T05:38:33.382Z,100640.52
2019-02-06T05:41:01.195Z,100638.34
2019-02-06T05:43:28.978Z,100634.48
2019-02-06T05:45:56.897Z,100636.97
2019-02-06T05:48:24.675Z,100623.47
2019-02-06T05:50:52.509Z,100618.52
2019-02-06T05:53:20.313Z,100620.96
2019-02-06T05:55:48.446Z,100629.95
2019-02-06T05:58:16.203Z,100636.34
2019-02-06T06:00:51.524Z,100635.18
2019-02-06T06:03:19.352Z,100640.59
2019-02-06T06:05:47.824Z,100644.75
2019-02-06T06:08:17.524Z,100638.62
2019-02-06T06:10:45.358Z,100643.89
2019-02-06T06:13:14.122Z,100644.95
2019-02-06T06:15:41.913Z,100641.92
2019-02-06T06:18:09.820Z,100639.04
2019-02-06T06:20:43.254Z,100642.92
2019-02-06T06:23:11.781Z,100638.28
2019-02-06T06:25:51.688Z,100633.59
2019-02-06T06:28:21.563Z,100632.53
2019-02-06T06:30:49.395Z,100627.70
2019-02-06T06:33:17.234Z,100624.18
2019-02-06T06:35:44.968Z,100625.56
2019-02-06T06:38:29.029Z,100625.31
2019-02-06T06:40:56.876Z,100624.57
2019-02-06T06:43:24.753Z,100616.32
2019-02-06T06:45:57.809Z,100615.75
2019-02-06T06:48:25.667Z,100614.72
2019-02-06T06:50:53.464Z,100617.89
2019-02-06T06:53:21.302Z,100610.08
2019-02-06T06:55:49.155Z,100612.94
2019-02-06T06:58:16.952Z,100616.55
2019-02-06T07:01:05.849Z,100609.27
2019-02-06T07:03:33.570Z,100610.17
2019-02-06T07:06:01.384Z,100607.95
2019-02-06T07:08:29.166Z,100610.16
2019-02-06T07:10:57.056Z,100617.42
2019-02-06T07:13:24.909Z,100619.97
2019-02-06T07:15:54.140Z,100628.04
2019-02-06T07:18:24.781Z,100634.71
2019-02-06T07:20:53.497Z,100629.95
2019-02-06T07:23:21.426Z,100634.59
2019-02-06T07:25:49.406Z,100632.48
2019-02-06T07:28:17.184Z,100639.23
2019-02-06T07:30:44.965Z,100644.00
2019-02-06T07:33:12.815Z,100651.74
2019-02-06T07:35:44.168Z,100660.06
2019-02-06T07:38:23.647Z,100659.62
2019-02-06T07:40:41.640Z,100657.05
2019-02-06T07:43:09.481Z,100663.69
2019-02-06T07:45:37.336Z,100664.11
2019-02-06T07:48:05.125Z,100662.45
2019-02-06T07:50:33.719Z,100667.98
2019-02-06T07:53:20.973Z,100665.67
2019-02-06T07:55:48.754Z,100674.16
2019-02-06T07:58:16.598Z,100680.15
2019-02-06T08:00:44.347Z,100673.56
2019-02-06T08:03:12.109Z,100672.86
2019-02-06T08:05:39.919Z,100671.59
2019-02-06T08:08:07.731Z,100674.70
2019-02-06T08:10:35.488Z,100682.14
2019-02-06T08:13:04.587Z,100675.95
2019-02-06T08:15:32.411Z,100673.49
2019-02-06T08:18:00.322Z,100671.98
2019-02-06T08:20:28.162Z,100672.14
2019-02-06T08:22:56.323Z,100675.42
2019-02-06T08:25:24.556Z,100672.84
2019-02-06T08:27:52.854Z,100674.46
2019-02-06T08:30:34.030Z,100674.95
2019-02-06T08:33:01.973Z,100683.73
2019-02-06T08:35:30.404Z,100681.31
2019-02-06T08:37:58.213Z,100683.59
2019-02-06T08:40:26.872Z,100686.47
2019-02-06T08:42:54.771Z,100685.11
2019-02-06T08:45:22.561Z,100681.59
2019-02-06T08:48:09.855Z,100677.59
2019-02-06T08:50:37.602Z,100675.84
2019-02-06T08:53:05.424Z,100668.95
2019-02-06T08:55:33.391Z,100670.44
2019-02-06T09:00:41.037Z,100671.19
2019-02-06T09:03:10.291Z,100668.25
2019-02-06T09:05:38.040Z,100669.38
2019-02-06T09:08:06.351Z,100669.70
2019-02-06T09:10:34.360Z,100667.36
2019-02-06T09:13:02.433Z,100665.34
2019-02-06T09:15:30.251Z,100670.44
2019-02-06T09:17:58.057Z,100672.65
2019-02-06T09:20:26.961Z,100667.73
2019-02-06T09:22:54.854Z,100670.13
2019-02-06T09:25:23.236Z,100666.12
2019-02-06T09:27:51.413Z,100661.31
2019-02-06T09:30:22.663Z,100663.72
2019-02-06T09:32:50.448Z,100668.56
2019-02-06T09:35:18.220Z,100667.05
2019-02-06T09:37:46.112Z,100668.73
2019-02-06T09:40:16.458Z,100666.05
2019-02-06T09:42:44.543Z,100667.98
2019-02-06T09:45:13.070Z,100662.03
2019-02-06T09:47:45.906Z,100661.34
2019-02-06T09:50:18.505Z,100660.70
2019-02-06T09:52:46.271Z,100657.58
2019-02-06T09:55:14.161Z,100656.64
2019-02-06T09:57:41.984Z,100657.53
2019-02-06T10:00:18.305Z,100662.61
2019-02-06T10:02:46.096Z,100664.27
2019-02-06T10:05:14.078Z,100659.28
2019-02-06T10:07:42.436Z,100658.84
2019-02-06T10:10:15.266Z,100652.50
2019-02-06T10:12:43.649Z,100650.96
2019-02-06T10:15:16.384Z,100651.12
2019-02-06T10:17:44.210Z,100653.77
2019-02-06T10:20:14.517Z,100654.00
2019-02-06T10:22:42.327Z,100655.67
2019-02-06T10:25:10.329Z,100660.37
2019-02-06T10:27:38.194Z,100651.98
2019-02-06T10:30:12.318Z,100652.02
2019-02-06T10:32:40.158Z,100651.84
2019-02-06T10:35:08.130Z,100652.10
2019-02-06T10:37:41.246Z,100650.22
2019-02-06T10:40:09.139Z,100643.31
2019-02-06T10:42:36.931Z,100641.73
2019-02-06T10:45:05.619Z,100640.46
2019-02-06T10:47:33.461Z,100634.56
2019-02-06T10:50:01.274Z,100626.41
2019-02-06T10:52:32.309Z,100626.87
2019-02-06T10:55:04.269Z,100616.97
2019-02-06T10:57:32.188Z,100609.80
2019-02-06T11:00:00.037Z,100608.46
2019-02-06T11:02:27.946Z,100602.54
2019-02-06T11:04:55.738Z,100607.11
2019-02-06T11:07:23.586Z,100600.80
2019-02-06T11:09:51.673Z,100586.79
2019-02-06T11:12:19.408Z,100583.16
2019-02-06T11:14:47.208Z,100580.42
2019-02-06T11:17:15.001Z,100575.84
2019-02-06T11:19:43.275Z,100570.85
2019-02-06T11:22:11.262Z,100566.18
2019-02-06T11:24:39.098Z,100557.91
2019-02-06T11:27:07.583Z,100553.76
2019-02-06T11:29:35.364Z,100542.28
2019-02-06T11:32:03.179Z,100543.88
2019-02-06T11:34:31.006Z,100541.94
2019-02-06T11:36:58.800Z,100535.84
2019-02-06T11:39:26.579Z,100533.22
2019-02-06T11:41:54.339Z,100523.69
2019-02-06T11:44:22.192Z,100521.16
2019-02-06T11:46:50.006Z,100514.98
2019-02-06T11:49:20.938Z,100503.90
2019-02-06T11:51:48.784Z,100498.17
2019-02-06T11:54:16.560Z,100491.77
2019-02-06T11:56:44.349Z,100481.91
2019-02-06T11:59:12.521Z,100479.52
2019-02-06T12:01:44.960Z,100463.09
2019-02-06T12:04:14.543Z,100464.97
2019-02-06T12:06:42.360Z,100459.67
2019-02-06T12:09:12.491Z,100454.71
2019-02-06T12:11:40.294Z,100444.50
2019-02-06T12:14:08.119Z,100438.33
2019-02-06T12:16:36.271Z,100439.64
2019-02-06T12:19:04.321Z,100436.77
2019-02-06T12:21:32.134Z,100428.95
2019-02-06T12:23:59.924Z,100425.06
2019-02-06T12:26:27.733Z,100421.65
2019-02-06T12:28:55.572Z,100419.80
2019-02-06T12:31:23.408Z,100418.31
2019-02-06T12:33:51.525Z,100417.61
2019-02-06T12:36:19.361Z,100413.74
2019-02-06T12:38:53.422Z,100411.53
2019-02-06T12:41:16.835Z,100407.31
2019-02-06T12:43:44.712Z,100405.09
2019-02-06T12:46:12.625Z,100398.70
2019-02-06T12:48:40.421Z,100393.70
2019-02-06T12:51:08.184Z,100391.11
2019-02-06T12:53:36.608Z,100390.02
2019-02-06T12:56:04.742Z,100378.83
2019-02-06T12:58:32.528Z,100376.59
2019-02-06T13:01:00.316Z,100372.05
2019-02-06T13:03:28.117Z,100376.48
2019-02-06T13:05:55.977Z,100368.20
2019-02-06T13:08:23.817Z,100358.33
2019-02-06T13:10:51.624Z,100360.66
2019-02-06T13:13:19.436Z,100361.62
2019-02-06T13:15:47.602Z,100353.94
2019-02-06T13:18:15.484Z,100348.69
2019-02-06T13:20:43.253Z,100349.77
2019-02-06T13:23:11.088Z,100346.48
2019-02-06T13:25:38.948Z,100345.02
2019-02-06T13:28:06.714Z,100355.86
2019-02-06T13:30:35.663Z,100349.32
2019-02-06T13:33:04.935Z,100342.20
2019-02-06T13:35:32.774Z,100338.87
2019-02-06T13:38:00.562Z,100332.94
2019-02-06T13:40:28.373Z,100332.15
2019-02-06T13:42:56.804Z,100324.84
2019-02-06T13:45:28.431Z,100326.27
2019-02-06T13:47:56.209Z,100318.38
2019-02-06T13:50:24.552Z,100322.38
2019-02-06T13:52:52.363Z,100323.90
2019-02-06T13:55:20.209Z,100317.39
2019-02-06T13:57:48.188Z,100314.77
2019-02-06T14:00:19.604Z,100308.25
2019-02-06T14:02:48.244Z,100302.19
2019-02-06T14:05:17.241Z,100294.31
2019-02-06T14:07:44.982Z,100287.30
2019-02-06T14:10:14.965Z,100282.05
2019-02-06T14:12:42.749Z,100279.73
2019-02-06T14:15:13.867Z,100286.00
2019-02-06T14:17:41.884Z,100281.89
2019-02-06T14:20:14.145Z,100283.92
2019-02-06T14:22:42.064Z,100284.09
2019-02-06T14:25:28.211Z,100286.08
2019-02-06T14:28:47.724Z,100279.47
2019-02-06T14:32:01.464Z,100275.64
2019-02-06T14:35:07.469Z,100269.67
2019-02-06T14:38:41.398Z,100265.27
2019-02-06T14:42:34.003Z,100266.56
2019-02-06T14:46:03.697Z,100262.81
2019-02-06T14:49:14.078Z,100257.20
2019-02-06T14:52:59.887Z,100255.87
2019-02-06T14:56:39.346Z,100247.80
2019-02-06T15:00:09.723Z,100260.06
2019-02-06T15:03:24.095Z,100258.94
2019-02-06T15:06:33.229Z,100255.64
2019-02-06T15:09:48.458Z,100248.69
2019-02-06T15:13:15.336Z,100245.84
2019-02-06T15:16:37.091Z,100241.34
2019-02-06T15:19:56.405Z,100239.86
2019-02-06T15:23:32.939Z,100229.02
2019-02-06T15:26:37.423Z,100229.81
2019-02-06T15:29:41.980Z,100226.70
2019-02-06T15:33:26.947Z,100229.16
2019-02-06T15:36:59.810Z,100231.86
2019-02-06T15:40:23.974Z,100238.03
2019-02-06T15:43:37.837Z,100242.98
2019-02-06T15:47:01.804Z,100232.45
2019-02-06T15:50:33.608Z,100235.54
2019-02-06T15:53:48.426Z,100230.97
2019-02-06T15:57:37.730Z,100230.04
2019-02-06T16:00:51.003Z,100238.27
2019-02-06T16:04:24.202Z,100228.84
2019-02-06T16:08:00.137Z,100221.19
2019-02-06T16:11:28.502Z,100216.08
2019-02-06T16:14:52.860Z,100218.83
2019-02-06T16:18:01.874Z,100221.92
2019-02-06T16:21:20.272Z,100228.41
2019-02-06T16:24:59.222Z,100228.13
2019-02-06T16:28:34.810Z,100222.50
2019-02-06T16:31:46.688Z,100229.38
2019-02-06T16:35:21.420Z,100225.62
2019-02-06T16:42:20.829Z,100229.19
2019-02-06T16:45:34.602Z,100229.55
2019-02-06T16:48:57.164Z,100225.81
2019-02-06T16:52:05.683Z,100191.20
2019-02-06T16:55:32.458Z,100218.61
2019-02-06T16:58:39.015Z,100211.45
2019-02-06T17:01:55.701Z,100223.14
2019-02-06T17:04:38.117Z,100214.63
2019-02-06T17:08:02.165Z,100212.27
2019-02-06T17:11:38.502Z,100212.27
2019-02-06T17:15:15.639Z,100215.62
2019-02-06T17:18:39.322Z,100209.33
2019-02-06T17:21:53.685Z,100206.92
2019-02-06T17:25:33.954Z,100208.41
2019-02-06T17:29:03.693Z,100201.22
2019-02-06T17:32:31.481Z,100196.41
2019-02-06T17:35:37.913Z,100195.36
2019-02-06T17:39:43.227Z,100197.16
2019-02-06T17:43:02.822Z,100203.33
2019-02-06T17:46:30.418Z,100203.19
2019-02-06T17:50:00.303Z,100204.45
2019-02-06T17:53:05.574Z,100193.13
2019-02-06T17:55:33.496Z,100197.00
2019-02-06T17:58:05.732Z,100196.05
2019-02-06T18:01:09.331Z,100190.63
2019-02-06T18:04:04.551Z,100196.98
2019-02-06T18:06:32.624Z,100184.52
2019-02-06T18:09:08.993Z,100184.84
2019-02-06T18:11:36.907Z,100186.66
2019-02-06T18:14:05.747Z,100185.86
2019-02-06T18:16:33.660Z,100176.36
2019-02-06T18:19:01.666Z,100171.38
2019-02-06T18:21:29.507Z,100176.39
2019-02-06T18:23:57.372Z,100170.41
2019-02-06T18:26:28.207Z,100167.13
2019-02-06T18:28:55.994Z,100168.67
2019-02-06T18:31:24.667Z,100169.68
2019-02-06T18:33:55.755Z,100159.01
2019-02-06T18:36:27.051Z,100161.80
2019-02-06T18:38:54.955Z,100159.77
2019-02-06T18:41:22.928Z,100160.06
2019-02-06T18:43:50.755Z,100155.61
2019-02-06T18:46:24.172Z,100150.84
2019-02-06T18:48:59.650Z,100145.42
2019-02-06T18:51:27.495Z,100143.64
2019-02-06T18:53:56.218Z,100141.50
2019-02-06T18:56:26.981Z,100138.11
2019-02-06T18:58:54.884Z,100140.97
2019-02-06T19:01:24.253Z,100143.11
2019-02-06T19:03:54.959Z,100150.98
2019-02-06T19:06:25.878Z,100112.86
2019-02-06T19:09:03.461Z,100154.39
2019-02-06T19:11:32.917Z,100157.20
2019-02-06T19:14:01.059Z,100159.31
2019-02-06T19:16:31.986Z,100159.31
2019-02-06T19:19:00.082Z,100150.53
2019-02-06T19:21:28.024Z,100154.22
2019-02-06T19:23:55.944Z,100145.03
2019-02-06T19:26:24.018Z,100139.05
2019-02-06T19:28:51.803Z,100133.47
2019-02-06T19:31:20.566Z,100124.66
2019-02-06T19:33:49.136Z,100128.33
2019-02-06T19:36:38.593Z,100129.18
2019-02-06T19:39:09.289Z,100129.22
2019-02-06T19:41:37.976Z,100133.82
2019-02-06T19:44:06.715Z,100130.34
2019-02-06T19:46:35.341Z,100125.13
2019-02-06T19:49:04.262Z,100118.81
2019-02-06T19:51:32.765Z,100115.98
2019-02-06T19:54:01.026Z,100117.63
2019-02-06T19:56:29.632Z,100118.03
2019-02-06T19:58:58.122Z,100105.95
2019-02-06T20:01:26.308Z,100098.91
2019-02-06T20:03:54.806Z,100086.23
2019-02-06T20:06:30.027Z,100086.18
2019-02-06T20:09:16.383Z,100080.59
2019-02-06T20:11:47.428Z,100080.50
2019-02-06T20:14:15.828Z,100078.84
2019-02-06T20:16:44.291Z,100071.85
2019-02-06T20:19:12.935Z,100069.14
2019-02-06T20:21:41.175Z,100070.70
2019-02-06T20:24:09.421Z,100075.17
2019-02-06T20:26:37.394Z,100073.29
2019-02-06T20:29:05.346Z,100071.52
2019-02-06T20:31:33.148Z,100069.84
2019-02-06T20:34:01.069Z,100066.98
2019-02-06T20:36:48.470Z,100065.37
2019-02-06T20:39:16.388Z,100068.43
2019-02-06T20:41:44.350Z,100072.06
2019-02-06T20:44:12.197Z,100074.31
2019-02-06T20:46:40.251Z,100077.55
2019-02-06T20:49:08.322Z,100079.75
2019-02-06T20:51:36.099Z,100072.13
2019-02-06T20:54:04.314Z,100063.66
2019-02-06T20:56:32.139Z,100061.30
2019-02-06T20:58:59.939Z,100065.50
2019-02-06T21:01:27.951Z,100056.14
2019-02-06T21:03:56.721Z,100043.85
2019-02-06T21:06:25.587Z,100033.35
2019-02-06T21:08:53.692Z,100023.65
2019-02-06T21:11:21.560Z,100020.78
2019-02-06T21:13:49.732Z,100032.00
2019-02-06T21:16:17.505Z,100032.66
2019-02-06T21:18:45.327Z,100027.66
2019-02-06T21:21:13.217Z,100020.09
2019-02-06T21:23:41.119Z,100015.78
2019-02-06T21:26:08.914Z,100014.13
2019-02-06T21:28:36.759Z,100017.23
2019-02-06T21:31:04.904Z,100014.81
2019-02-06T21:33:33.150Z,100015.91
2019-02-06T21:36:02.611Z,100022.52
2019-02-06T21:38:30.425Z,100021.11
2019-02-06T21:40:58.234Z,100020.79
2019-02-06T21:43:26.021Z,100024.86
2019-02-06T21:45:53.989Z,100020.53
2019-02-06T21:48:22.467Z,100016.41
2019-02-06T21:50:50.503Z,100007.08
2019-02-06T21:53:18.412Z,100009.02
2019-02-06T21:55:46.298Z,100006.20
2019-02-06T21:58:14.113Z,100004.34
2019-02-06T22:00:42.115Z,100003.94
2019-02-06T22:03:10.753Z,100008.84
2019-02-06T22:05:39.205Z,100008.62
2019-02-06T22:08:06.997Z,100004.55
2019-02-06T22:10:34.852Z,100006.16
2019-02-06T22:13:02.616Z,100002.27
2019-02-06T22:15:30.568Z,99993.23
2019-02-06T22:17:58.555Z,99988.86
2019-02-06T22:20:26.748Z,99988.45
2019-02-06T22:22:54.578Z,99993.64
2019-02-06T22:25:27.600Z,99991.34
2019-02-06T22:27:55.437Z,99984.48
2019-02-06T22:30:25.577Z,99983.55
2019-02-06T22:32:53.388Z,99983.30
2019-02-06T22:35:21.738Z,99980.52
2019-02-06T22:37:49.667Z,99970.77
2019-02-06T22:40:19.788Z,99925.14
2019-02-06T22:42:47.628Z,99967.17
2019-02-06T22:45:18.597Z,99971.05
2019-02-06T22:47:46.397Z,99968.78
2019-02-06T22:50:16.868Z,99967.66
2019-02-06T22:52:44.995Z,99967.49
2019-02-06T22:55:13.069Z,99960.58
2019-02-06T22:58:05.405Z,99949.97
2019-02-06T23:01:21.307Z,99952.32
2019-02-06T23:03:49.392Z,99956.73
2019-02-06T23:06:17.176Z,99958.22
2019-02-06T23:08:45.000Z,99942.63
2019-02-06T23:11:12.837Z,99947.06
2019-02-06T23:13:40.750Z,99944.45
2019-02-06T23:16:08.719Z,99942.91
2019-02-06T23:18:36.568Z,99935.14
2019-02-06T23:21:04.982Z,99928.55
2019-02-06T23:23:33.299Z,99926.81
2019-02-06T23:26:06.542Z,99917.52
2019-02-06T23:28:34.357Z,99920.84
2019-02-06T23:31:02.167Z,99916.76
2019-02-06T23:33:29.967Z,99912.11
2019-02-06T23:35:57.915Z,99903.64
2019-02-06T23:38:25.726Z,99912.55
2019-02-06T23:40:53.613Z,99918.28
2019-02-06T23:43:21.435Z,99917.63
2019-02-06T23:45:49.274Z,99911.95
2019-02-06T23:48:17.066Z,99904.58
2019-02-06T23:50:44.911Z,99895.98
2019-02-06T23:53:12.720Z,99893.67
2019-02-06T23:55:41.084Z,99893.80
2019-02-06T23:58:08.899Z,99884.73
